Time;durP1;ratioP1;P1;durP2;ratioP2;P2;SDS_P1;SDS_P2;PMS_P1;PMS_P2;Temp;Humidity;BMP_temperature;BMP_pressure;BME280_temperature;BME280_humidity;BME280_pressure;Samples;Min_cycle;Max_cycle;Signal;HPM_P1;HPM_P2
2022/05/15 00:01:40;;;;;;;;;;;;;;;;;;5031064;28;1051;-71
2022/05/15 00:04:07;;;;;;;;;;;;;;;;;;5031005;28;1303;-72
2022/05/15 00:06:33;;;;;;;;;;;;;;;;;;5029814;28;1202;-71
2022/05/15 00:09:00;;;;;;;;;;;;;;;;;;5030764;28;956;-71
2022/05/15 00:11:26;;;;;;;;;;;;;;;;;;5031006;28;1079;-72
2022/05/15 00:13:52;;;;;;;;;;;;;;;;;;5030583;28;1976;-71
2022/05/15 00:16:18;;;;;;;;;;;;;;;;;;5030712;28;1135;-71
2022/05/15 00:18:46;;;;;;;;;;;;;;;;;;5030820;28;1080;-71
2022/05/15 00:21:13;;;;;;;;;;;;;;;;;;5029458;28;1243;-71
2022/05/15 00:23:39;;;;;;;;;;;;;;;;;;5030553;28;1356;-71
2022/05/15 00:26:05;;;;;;;;;;;;;;;;;;5030473;28;843;-66
2022/05/15 00:28:32;;;;;;;;;;;;;;;;;;5030600;28;1079;-69
2022/05/15 00:30:58;;;;;;;;;;;;;;;;;;5030495;28;882;-69
2022/05/15 00:33:24;;;;;;;;;;;;;;;;;;5029217;28;1918;-69
2022/05/15 00:35:52;;;;;;;;;;;;;;;;;;5030465;28;1194;-69
2022/05/15 00:38:19;;;;;;;;;;;;;;;;;;5026999;28;1487;-69
2022/05/15 00:40:46;;;;;;;;;;;;;;;;;;5029205;28;1160;-68
2022/05/15 00:43:12;;;;;;;;;;;;;;;;;;5030454;28;1319;-69
2022/05/15 00:45:39;;;;;;;;;;;;;;;;;;5028956;28;1563;-68
2022/05/15 00:48:05;;;;;;;;;;;;;;;;;;5030404;28;850;-69
2022/05/15 00:50:32;;;;;;;;;;;;;;;;;;5030623;28;955;-69
2022/05/15 00:53:00;;;;;;;;;;;;;;;;;;5030215;28;1910;-69
2022/05/15 00:55:30;;;;;;;;;;;;;;;;;;5029175;28;1223;-69
2022/05/15 00:57:57;;;;;;;;;;;;;;;;;;5028808;28;2465;-68
2022/05/15 01:00:25;;;;;;;;;;;;;;;;;;5029099;28;1359;-69
2022/05/15 01:02:52;;;;;;;;;;;;;;;;;;5028548;28;2085;-69
2022/05/15 01:05:19;;;;;;;;;;;;;;;;;;5045526;28;1387;-69
2022/05/15 01:07:45;;;;;;;;;;;;;;;;;;5028463;28;1191;-69
2022/05/15 01:10:14;;;;;;;;;;;;;;;;;;5028889;28;878;-69
2022/05/15 01:12:42;;;;;;;;;;;;;;;;;;5028546;28;1923;-67
2022/05/15 01:15:15;;;;;;;;;;;;;;;;;;5028542;28;1686;-70
2022/05/15 01:17:42;;;;;;;;;;;;;;;;;;5028634;28;1380;-69
2022/05/15 01:20:10;;;;;;;;;;;;;;;;;;5032670;28;1199;-69
2022/05/15 01:22:37;;;;;;;;;;;;;;;;;;5031926;28;1322;-69
2022/05/15 01:25:04;;;;;;;;;;;;;;;;;;5032563;28;1203;-69
2022/05/15 01:27:30;;;;;;;;;;;;;;;;;;5032129;28;1311;-70
2022/05/15 01:29:57;;;;;;;;;;;;;;;;;;5032234;28;1543;-69
2022/05/15 01:32:23;;;;;;;;;;;;;;;;;;5032258;28;1798;-69
2022/05/15 01:34:49;;;;;;;;;;;;;;;;;;5032141;28;1918;-69
2022/05/15 01:37:15;;;;;;;;;;;;;;;;;;5032089;28;1342;-69
2022/05/15 01:39:43;;;;;;;;;;;;;;;;;;5032355;28;1407;-70
2022/05/15 01:42:09;;;;;;;;;;;;;;;;;;5032418;28;1408;-70
2022/05/15 01:44:36;;;;;;;;;;;;;;;;;;5032157;28;1238;-70
2022/05/15 01:47:03;;;;;;;;;;;;;;;;;;5048718;28;1218;-70
2022/05/15 01:49:29;;;;;;;;;;;;;;;;;;5032526;28;1344;-70
2022/05/15 01:51:56;;;;;;;;;;;;;;;;;;5032218;28;1392;-69
2022/05/15 01:54:23;;;;;;;;;;;;;;;;;;5032324;28;1918;-70
2022/05/15 01:56:50;;;;;;;;;;;;;;;;;;5033248;28;1087;-70
2022/05/15 01:59:19;;;;;;;;;;;;;;;;;;5031852;28;1373;-70
2022/05/15 02:01:45;;;;;;;;;;;;;;;;;;5031895;28;1558;-70
2022/05/15 02:04:12;;;;;;;;;;;;;;;;;;5032069;28;1553;-70
2022/05/15 02:06:39;;;;;;;;;;;;;;;;;;5031746;28;1447;-70
2022/05/15 02:09:06;;;;;;;;;;;;;;;;;;5048471;28;1190;-70
2022/05/15 02:11:34;;;;;;;;;;;;;;;;;;5031859;28;1197;-70
2022/05/15 02:14:01;;;;;;;;;;;;;;;;;;5031089;28;1980;-70
2022/05/15 02:16:28;;;;;;;;;;;;;;;;;;5031354;28;1511;-70
2022/05/15 02:18:54;;;;;;;;;;;;;;;;;;5031636;28;818;-70
2022/05/15 02:21:20;;;;;;;;;;;;;;;;;;5031950;28;1247;-70
2022/05/15 02:23:47;;;;;;;;;;;;;;;;;;5031553;28;1428;-70
2022/05/15 02:26:13;;;;;;;;;;;;;;;;;;5031271;28;1495;-70
2022/05/15 02:28:39;;;;;;;;;;;;;;;;;;5031580;28;1432;-70
2022/05/15 02:31:07;;;;;;;;;;;;;;;;;;5030813;28;1355;-70
2022/05/15 02:33:35;;;;;;;;;;;;;;;;;;5031584;28;1923;-70
2022/05/15 02:36:01;;;;;;;;;;;;;;;;;;5032411;28;814;-71
2022/05/15 02:38:29;;;;;;;;;;;;;;;;;;5013644;28;1561;-70
2022/05/15 02:40:55;;;;;;;;;;;;;;;;;;5011521;28;1145;-70
2022/05/15 02:43:21;;;;;;;;;;;;;;;;;;5011298;28;1330;-70
2022/05/15 02:45:47;;;;;;;;;;;;;;;;;;5011147;28;1264;-69
2022/05/15 02:51:04;;;;;;;;;;;;;;;;;;5010474;28;1491;-70
2022/05/15 02:53:31;;;;;;;;;;;;;;;;;;5011196;28;1979;-70
2022/05/15 02:55:57;;;;;;;;;;;;;;;;;;5010881;28;1265;-69
2022/05/15 02:58:23;;;;;;;;;;;;;;;;;;5010870;28;1254;-70
2022/05/15 03:00:50;;;;;;;;;;;;;;;;;;5011045;28;1352;-69
2022/05/15 03:03:17;;;;;;;;;;;;;;;;;;5011117;28;1547;-70
2022/05/15 03:05:43;;;;;;;;;;;;;;;;;;5012312;28;1115;-70
2022/05/15 03:08:10;;;;;;;;;;;;;;;;;;5010983;28;1443;-70
2022/05/15 03:10:36;;;;;;;;;;;;;;;;;;5012273;28;776;-70
2022/05/15 03:13:02;;;;;;;;;;;;;;;;;;5010431;28;1353;-70
2022/05/15 03:15:28;;;;;;;;;;;;;;;;;;5010951;28;1918;-70
2022/05/15 03:17:54;;;;;;;;;;;;;;;;;;5011828;28;1126;-70
2022/05/15 03:20:27;;;;;;;;;;;;;;;;;;5011043;28;1206;-70
2022/05/15 03:22:53;;;;;;;;;;;;;;;;;;5010849;28;1487;-70
2022/05/15 03:25:20;;;;;;;;;;;;;;;;;;5010940;28;1243;-70
2022/05/15 03:27:46;;;;;;;;;;;;;;;;;;5010333;28;1214;-70
2022/05/15 03:30:13;;;;;;;;;;;;;;;;;;5010888;28;1389;-70
2022/05/15 03:32:39;;;;;;;;;;;;;;;;;;5010307;28;1297;-71
2022/05/15 03:35:06;;;;;;;;;;;;;;;;;;5010507;28;1969;-70
2022/05/15 03:37:34;;;;;;;;;;;;;;;;;;5010179;28;1296;-69
2022/05/15 03:40:00;;;;;;;;;;;;;;;;;;5011839;28;953;-69
2022/05/15 03:42:26;;;;;;;;;;;;;;;;;;5011545;28;1316;-69
2022/05/15 03:44:53;;;;;;;;;;;;;;;;;;5010355;28;2332;-69
2022/05/15 03:47:20;;;;;;;;;;;;;;;;;;5009918;28;1009;-69
2022/05/15 03:49:46;;;;;;;;;;;;;;;;;;5010487;28;1215;-69
2022/05/15 03:52:12;;;;;;;;;;;;;;;;;;5010475;28;1396;-68
2022/05/15 03:54:41;;;;;;;;;;;;;;;;;;5011541;28;1914;-69
2022/05/15 03:57:07;;;;;;;;;;;;;;;;;;5010009;28;1458;-69
2022/05/15 03:59:34;;;;;;;;;;;;;;;;;;5010213;28;1169;-70
2022/05/15 04:02:00;;;;;;;;;;;;;;;;;;5010200;28;1311;-70
2022/05/15 04:04:29;;;;;;;;;;;;;;;;;;5010051;28;1334;-69
2022/05/15 04:06:55;;;;;;;;;;;;;;;;;;5009977;28;1286;-70
2022/05/15 04:09:22;;;;;;;;;;;;;;;;;;5009881;28;1278;-70
2022/05/15 04:11:50;;;;;;;;;;;;;;;;;;5009442;28;1876;-68
2022/05/15 04:14:16;;;;;;;;;;;;;;;;;;5021728;28;1918;-69
2022/05/15 04:16:43;;;;;;;;;;;;;;;;;;5023823;28;1142;-69
2022/05/15 04:19:09;;;;;;;;;;;;;;;;;;5010253;28;1126;-70
2022/05/15 04:21:37;;;;;;;;;;;;;;;;;;5010202;28;1377;-68
2022/05/15 04:24:05;;;;;;;;;;;;;;;;;;5010100;28;1375;-69
2022/05/15 04:26:31;;;;;;;;;;;;;;;;;;5010997;28;795;-69
2022/05/15 04:28:59;;;;;;;;;;;;;;;;;;5010141;28;1381;-70
2022/05/15 04:31:25;;;;;;;;;;;;;;;;;;5011338;28;795;-68
2022/05/15 04:33:51;;;;;;;;;;;;;;;;;;5009868;28;1919;-70
2022/05/15 04:36:17;;;;;;;;;;;;;;;;;;5010627;28;1120;-71
2022/05/15 04:38:43;;;;;;;;;;;;;;;;;;5010934;28;845;-71
2022/05/15 04:41:10;;;;;;;;;;;;;;;;;;5012966;28;1531;-70
2022/05/15 04:43:36;;;;;;;;;;;;;;;;;;5011190;28;1555;-70
2022/05/15 04:46:07;;;;;;;;;;;;;;;;;;5010926;28;1004;-71
2022/05/15 04:48:33;;;;;;;;;;;;;;;;;;5010863;28;1140;-71
2022/05/15 04:50:59;;;;;;;;;;;;;;;;;;5010889;28;1133;-71
2022/05/15 04:53:27;;;;;;;;;;;;;;;;;;5012077;28;1400;-68
2022/05/15 04:55:53;;;;;;;;;;;;;;;;;;5014408;28;1918;-68
2022/05/15 04:58:19;;;;;;;;;;;;;;;;;;5014519;28;993;-68
2022/05/15 05:00:45;;;;;;;;;;;;;;;;;;5014669;28;1000;-69
2022/05/15 05:03:14;;;;;;;;;;;;;;;;;;5014727;28;1416;-69
2022/05/15 05:05:40;;;;;;;;;;;;;;;;;;5014864;28;989;-69
2022/05/15 05:08:07;;;;;;;;;;;;;;;;;;5013743;28;1087;-69
2022/05/15 05:10:33;;;;;;;;;;;;;;;;;;5013899;28;889;-68
2022/05/15 05:13:00;;;;;;;;;;;;;;;;;;5020799;28;1589;-69
2022/05/15 05:15:26;;;;;;;;;;;;;;;;;;5024863;28;1910;-68
2022/05/15 05:17:52;;;;;;;;;;;;;;;;;;5015517;28;1151;-68
2022/05/15 05:20:19;;;;;;;;;;;;;;;;;;5026107;28;1611;-69
2022/05/15 05:22:46;;;;;;;;;;;;;;;;;;5023021;28;1476;-69
2022/05/15 05:25:12;;;;;;;;;;;;;;;;;;5014956;28;1327;-69
2022/05/15 05:27:39;;;;;;;;;;;;;;;;;;5022783;28;1539;-69
2022/05/15 05:30:06;;;;;;;;;;;;;;;;;;5029103;28;1151;-69
2022/05/15 05:32:32;;;;;;;;;;;;;;;;;;5011693;28;1401;-68
2022/05/15 05:34:58;;;;;;;;;;;;;;;;;;5011485;28;1911;-68
2022/05/15 05:37:26;;;;;;;;;;;;;;;;;;5019501;28;1376;-68
2022/05/15 05:39:52;;;;;;;;;;;;;;;;;;5020259;28;1383;-69
2022/05/15 05:42:18;;;;;;;;;;;;;;;;;;5017521;28;1480;-70
2022/05/15 05:44:44;;;;;;;;;;;;;;;;;;5027227;28;1124;-69
2022/05/15 05:47:10;;;;;;;;;;;;;;;;;;5030950;28;1310;-70
2022/05/15 05:49:37;;;;;;;;;;;;;;;;;;5031190;28;1056;-69
2022/05/15 05:52:03;;;;;;;;;;;;;;;;;;5022875;28;1395;-69
2022/05/15 05:54:31;;;;;;;;;;;;;;;;;;5019779;28;1974;-70
2022/05/15 05:56:58;;;;;;;;;;;;;;;;;;5020221;28;1195;-69
2022/05/15 05:59:24;;;;;;;;;;;;;;;;;;5014898;28;1454;-69
2022/05/15 06:01:50;;;;;;;;;;;;;;;;;;5015076;28;1412;-68
2022/05/15 06:07:00;;;;;;;;;;;;;;;;;;5022977;28;1475;-69
2022/05/15 06:09:26;;;;;;;;;;;;;;;;;;5023553;28;1391;-69
2022/05/15 06:11:54;;;;;;;;;;;;;;;;;;5016351;28;1490;-67
2022/05/15 06:14:20;;;;;;;;;;;;;;;;;;5026949;28;1989;-70
2022/05/15 06:16:46;;;;;;;;;;;;;;;;;;5013056;28;1190;-70
2022/05/15 06:19:12;;;;;;;;;;;;;;;;;;5013573;28;936;-69
2022/05/15 06:21:38;;;;;;;;;;;;;;;;;;5013382;28;1143;-70
2022/05/15 06:24:05;;;;;;;;;;;;;;;;;;5023364;28;1380;-73
2022/05/15 06:26:31;;;;;;;;;;;;;;;;;;5012897;28;1103;-69
2022/05/15 06:28:59;;;;;;;;;;;;;;;;;;5012869;28;1087;-70
2022/05/15 06:31:25;;;;;;;;;;;;;;;;;;5022607;28;1467;-70
2022/05/15 06:33:51;;;;;;;;;;;;;;;;;;5024766;28;1626;-69
2022/05/15 06:36:17;;;;;;;;;;;;;;;;;;5017066;28;1981;-69
2022/05/15 06:38:44;;;;;;;;;;;;;;;;;;5024755;28;1134;-69
2022/05/15 06:41:10;;;;;;;;;;;;;;;;;;5031994;28;1167;-70
2022/05/15 06:43:36;;;;;;;;;;;;;;;;;;5032181;28;1305;-71
2022/05/15 06:46:04;;;;;;;;;;;;;;;;;;5032406;28;1079;-70
2022/05/15 06:48:30;;;;;;;;;;;;;;;;;;5032129;28;786;-69
2022/05/15 06:50:56;;;;;;;;;;;;;;;;;;5032425;28;1064;-70
2022/05/15 06:53:22;;;;;;;;;;;;;;;;;;5032143;28;1322;-70
2022/05/15 06:58:33;;;;;;;;;;;;;;;;;;5019067;28;1554;-70
2022/05/15 07:00:59;;;;;;;;;;;;;;;;;;5020684;28;1387;-70
2022/05/15 07:03:27;;;;;;;;;;;;;;;;;;5020089;28;1308;-71
2022/05/15 07:05:53;;;;;;;;;;;;;;;;;;5023227;28;1293;-70
2022/05/15 07:08:19;;;;;;;;;;;;;;;;;;5028095;28;1745;-70
2022/05/15 07:10:45;;;;;;;;;;;;;;;;;;5019292;28;1480;-68
2022/05/15 07:13:12;;;;;;;;;;;;;;;;;;5013439;28;1835;-68
2022/05/15 07:15:38;;;;;;;;;;;;;;;;;;5016799;28;1975;-68
2022/05/15 07:18:04;;;;;;;;;;;;;;;;;;5019109;28;1372;-67
2022/05/15 07:20:32;;;;;;;;;;;;;;;;;;5032286;28;1071;-68
2022/05/15 07:22:58;;;;;;;;;;;;;;;;;;5029429;28;1382;-67
2022/05/15 07:25:24;;;;;;;;;;;;;;;;;;5011457;28;957;-68
2022/05/15 07:27:51;;;;;;;;;;;;;;;;;;5010640;28;1091;-68
2022/05/15 07:30:17;;;;;;;;;;;;;;;;;;5018514;28;1405;-68
2022/05/15 07:32:43;;;;;;;;;;;;;;;;;;5031293;28;1326;-68
2022/05/15 07:35:09;;;;;;;;;;;;;;;;;;5031110;28;1910;-69
2022/05/15 07:37:37;;;;;;;;;;;;;;;;;;5031384;28;1071;-67
2022/05/15 07:40:03;;;;;;;;;;;;;;;;;;5028758;28;1146;-67
2022/05/15 07:42:31;;;;;;;;;;;;;;;;;;5011055;28;1392;-67
2022/05/15 07:44:57;;;;;;;;;;;;;;;;;;5015194;28;1275;-67
2022/05/15 07:47:24;;;;;;;;;;;;;;;;;;5011114;28;1267;-69
2022/05/15 07:49:50;;;;;;;;;;;;;;;;;;5010977;28;1049;-69
2022/05/15 07:52:16;;;;;;;;;;;;;;;;;;5010778;28;1369;-67
2022/05/15 07:54:43;;;;;;;;;;;;;;;;;;5010721;28;2006;-67
2022/05/15 07:57:10;;;;;;;;;;;;;;;;;;5010952;28;1072;-67
2022/05/15 07:59:36;;;;;;;;;;;;;;;;;;5010500;28;1072;-67
2022/05/15 08:02:06;;;;;;;;;;;;;;;;;;5010582;28;1298;-66
2022/05/15 08:08:00;;;;;;;;;;;;;;;;;;5029876;28;794;-67
2022/05/15 08:10:04;;;;;;;;;;;;;;;;;;5029280;28;1163;-67
2022/05/15 08:12:30;;;;;;;;;;;;;;;;;;5029727;28;1357;-68
2022/05/15 08:14:56;;;;;;;;;;;;;;;;;;5020380;28;1975;-68
2022/05/15 08:17:22;;;;;;;;;;;;;;;;;;5010092;28;919;-67
2022/05/15 08:25:19;;;;;;;;;;;;;;;;;;5010606;28;838;-67
2022/05/15 08:27:45;;;;;;;;;;;;;;;;;;5009810;28;1083;-67
2022/05/15 08:30:12;;;;;;;;;;;;;;;;;;5017654;28;1532;-69
2022/05/15 08:32:38;;;;;;;;;;;;;;;;;;5017450;28;1393;-70
2022/05/15 08:35:04;;;;;;;;;;;;;;;;;;5010990;28;1922;-67
2022/05/15 08:37:30;;;;;;;;;;;;;;;;;;5029477;28;1409;-69
2022/05/15 08:39:57;;;;;;;;;;;;;;;;;;5021822;28;1476;-67
2022/05/15 08:42:25;;;;;;;;;;;;;;;;;;5010741;28;1326;-69
2022/05/15 08:44:52;;;;;;;;;;;;;;;;;;5010646;28;594;-68
2022/05/15 08:47:19;;;;;;;;;;;;;;;;;;5010868;28;1384;-70
2022/05/15 08:49:46;;;;;;;;;;;;;;;;;;5012780;28;1397;-70
2022/05/15 08:52:18;;;;;;;;;;;;;;;;;;5010558;28;1301;-71
2022/05/15 08:55:00;;;;;;;;;;;;;;;;;;5011631;28;1999;-68
2022/05/15 08:57:31;;;;;;;;;;;;;;;;;;5010357;28;1139;-70
2022/05/15 08:59:58;;;;;;;;;;;;;;;;;;5010123;28;1121;-70
2022/05/15 09:02:25;;;;;;;;;;;;;;;;;;5016849;28;1524;-71
2022/05/15 09:04:51;;;;;;;;;;;;;;;;;;5018764;28;1208;-68
2022/05/15 09:07:20;;;;;;;;;;;;;;;;;;5013200;28;1411;-70
2022/05/15 09:09:49;;;;;;;;;;;;;;;;;;5030418;28;1071;-70
2022/05/15 09:12:16;;;;;;;;;;;;;;;;;;5030077;28;1312;-69
2022/05/15 09:14:48;;;;;;;;;;;;;;;;;;5027941;28;2025;-68
2022/05/15 09:17:17;;;;;;;;;;;;;;;;;;5029830;28;1918;-69
2022/05/15 09:19:43;;;;;;;;;;;;;;;;;;5025268;28;1396;-68
2022/05/15 09:22:09;;;;;;;;;;;;;;;;;;5016729;28;1467;-70
2022/05/15 09:24:37;;;;;;;;;;;;;;;;;;5023270;28;1467;-68
2022/05/15 09:27:13;;;;;;;;;;;;;;;;;;5020865;28;1332;-69
2022/05/15 09:29:39;;;;;;;;;;;;;;;;;;5018357;28;1491;-69
2022/05/15 09:32:13;;;;;;;;;;;;;;;;;;5013522;28;1318;-69
2022/05/15 09:34:40;;;;;;;;;;;;;;;;;;5022502;28;1405;-70
2022/05/15 09:39:46;;;;;;;;;;;;;;;;;;4984948;28;1486;-70
2022/05/15 09:45:17;;;;;;;;;;;;;;;;;;5012383;28;1208;-68
2022/05/15 09:47:45;;;;;;;;;;;;;;;;;;5013581;28;1056;-70
2022/05/15 09:50:32;;;;;;;;;;;;;;;;;;5022014;28;1640;-69
2022/05/15 09:52:58;;;;;;;;;;;;;;;;;;5020583;28;1496;-70
2022/05/15 09:55:27;;;;;;;;;;;;;;;;;;5021586;28;1914;-70
2022/05/15 09:57:54;;;;;;;;;;;;;;;;;;5013325;28;1096;-69
2022/05/15 10:00:22;;;;;;;;;;;;;;;;;;5023722;28;1463;-70
2022/05/15 10:02:51;;;;;;;;;;;;;;;;;;5021455;28;1494;-70
2022/05/15 10:05:19;;;;;;;;;;;;;;;;;;5013552;28;1236;-70
2022/05/15 10:07:50;;;;;;;;;;;;;;;;;;5013159;28;1143;-70
2022/05/15 10:10:18;;;;;;;;;;;;;;;;;;5013680;28;926;-70
2022/05/15 10:12:45;;;;;;;;;;;;;;;;;;5031438;28;1924;-67
2022/05/15 10:15:12;;;;;;;;;;;;;;;;;;5031450;28;1225;-70
2022/05/15 10:17:39;;;;;;;;;;;;;;;;;;5025732;28;1914;-70
2022/05/15 10:20:08;;;;;;;;;;;;;;;;;;5013028;28;961;-71
2022/05/15 10:22:36;;;;;;;;;;;;;;;;;;5012908;28;1318;-71
2022/05/15 10:25:06;;;;;;;;;;;;;;;;;;5015807;28;1356;-70
2022/05/15 10:27:32;;;;;;;;;;;;;;;;;;5018256;28;1154;-70
2022/05/15 10:30:00;;;;;;;;;;;;;;;;;;5011914;28;1293;-70
2022/05/15 10:32:27;;;;;;;;;;;;;;;;;;5011565;28;1336;-71
2022/05/15 10:34:53;;;;;;;;;;;;;;;;;;5015638;28;1464;-70
2022/05/15 10:37:31;;;;;;;;;;;;;;;;;;5025512;28;1914;-70
2022/05/15 10:40:02;;;;;;;;;;;;;;;;;;5022134;28;1154;-69
2022/05/15 10:42:30;;;;;;;;;;;;;;;;;;5026371;28;1469;-70
2022/05/15 10:44:59;;;;;;;;;;;;;;;;;;5020822;28;1218;-70
2022/05/15 10:47:26;;;;;;;;;;;;;;;;;;5016954;28;1404;-71
2022/05/15 10:49:56;;;;;;;;;;;;;;;;;;5020816;28;1155;-70
2022/05/15 10:52:31;;;;;;;;;;;;;;;;;;5022969;28;1577;-70
2022/05/15 10:57:47;;;;;;;;;;;;;;;;;;5002399;28;1926;-69
2022/05/15 11:00:16;;;;;;;;;;;;;;;;;;5011101;28;1187;-70
2022/05/15 11:02:58;;;;;;;;;;;;;;;;;;5013619;28;1516;-71
2022/05/15 11:05:26;;;;;;;;;;;;;;;;;;5025437;28;1218;-71
2022/05/15 11:07:56;;;;;;;;;;;;;;;;;;5030529;28;1076;-70
2022/05/15 11:10:24;;;;;;;;;;;;;;;;;;5024765;28;1592;-70
2022/05/15 11:12:54;;;;;;;;;;;;;;;;;;5020112;28;1504;-69
2022/05/15 11:15:25;;;;;;;;;;;;;;;;;;5018717;28;1491;-70
2022/05/15 11:17:53;;;;;;;;;;;;;;;;;;5020350;28;1973;-71
2022/05/15 11:20:20;;;;;;;;;;;;;;;;;;5024300;28;1139;-71
2022/05/15 11:22:47;;;;;;;;;;;;;;;;;;5031489;28;1310;-71
2022/05/15 11:25:16;;;;;;;;;;;;;;;;;;5031855;28;827;-70
2022/05/15 11:27:44;;;;;;;;;;;;;;;;;;5030853;28;1561;-70
2022/05/15 11:30:12;;;;;;;;;;;;;;;;;;5019235;28;1399;-70
2022/05/15 11:32:42;;;;;;;;;;;;;;;;;;5016029;28;1478;-70
2022/05/15 11:35:14;;;;;;;;;;;;;;;;;;5028883;28;1352;-70
2022/05/15 11:37:42;;;;;;;;;;;;;;;;;;5018600;28;1975;-70
2022/05/15 11:40:09;;;;;;;;;;;;;;;;;;5030685;28;1167;-70
2022/05/15 11:42:37;;;;;;;;;;;;;;;;;;5031376;28;1306;-71
2022/05/15 11:45:18;;;;;;;;;;;;;;;;;;5030753;28;1400;-70
2022/05/15 11:47:46;;;;;;;;;;;;;;;;;;5022054;28;1411;-69
2022/05/15 11:50:14;;;;;;;;;;;;;;;;;;5022608;28;1378;-71
2022/05/15 11:52:42;;;;;;;;;;;;;;;;;;5031072;28;1479;-70
2022/05/15 11:55:31;;;;;;;;;;;;;;;;;;5029792;28;1424;-71
2022/05/15 11:58:09;;;;;;;;;;;;;;;;;;5030721;28;1922;-69
2022/05/15 12:00:35;;;;;;;;;;;;;;;;;;5031109;28;1063;-70
2022/05/15 12:03:01;;;;;;;;;;;;;;;;;;5031609;28;1454;-69
2022/05/15 12:05:32;;;;;;;;;;;;;;;;;;5021438;28;1947;-70
2022/05/15 12:07:59;;;;;;;;;;;;;;;;;;5030682;28;1094;-70
2022/05/15 12:10:44;;;;;;;;;;;;;;;;;;5026183;28;1590;-70
2022/05/15 12:13:14;;;;;;;;;;;;;;;;;;5019576;28;1375;-70
2022/05/15 12:15:42;;;;;;;;;;;;;;;;;;5017689;28;1226;-69
2022/05/15 12:18:23;;;;;;;;;;;;;;;;;;5010282;28;1981;-71
2022/05/15 12:20:50;;;;;;;;;;;;;;;;;;5019419;28;1404;-71
2022/05/15 12:23:18;;;;;;;;;;;;;;;;;;5010727;28;1305;-70
2022/05/15 12:25:47;;;;;;;;;;;;;;;;;;5018023;28;1351;-71
2022/05/15 12:31:04;;;;;;;;;;;;;;;;;;5011268;28;1242;-70
2022/05/15 12:33:30;;;;;;;;;;;;;;;;;;5010956;28;1428;-70
2022/05/15 12:35:56;;;;;;;;;;;;;;;;;;5012699;28;1428;-70
2022/05/15 12:38:23;;;;;;;;;;;;;;;;;;5018491;28;1907;-70
2022/05/15 12:40:56;;;;;;;;;;;;;;;;;;5010851;28;1001;-69
2022/05/15 12:43:25;;;;;;;;;;;;;;;;;;5012936;28;1469;-70
2022/05/15 12:45:51;;;;;;;;;;;;;;;;;;5018392;28;1443;-70
2022/05/15 12:48:17;;;;;;;;;;;;;;;;;;5016455;28;1294;-70
2022/05/15 12:50:48;;;;;;;;;;;;;;;;;;5010735;28;1084;-71
2022/05/15 12:53:18;;;;;;;;;;;;;;;;;;5010330;28;1387;-70
2022/05/15 12:55:44;;;;;;;;;;;;;;;;;;5020725;28;1343;-70
2022/05/15 12:58:10;;;;;;;;;;;;;;;;;;5018342;28;1922;-71
2022/05/15 13:00:38;;;;;;;;;;;;;;;;;;5010896;28;934;-71
2022/05/15 13:03:05;;;;;;;;;;;;;;;;;;5010930;28;1451;-69
2022/05/15 13:05:32;;;;;;;;;;;;;;;;;;5025577;28;1213;-70
2022/05/15 13:08:00;;;;;;;;;;;;;;;;;;5027413;28;1427;-70
2022/05/15 13:10:27;;;;;;;;;;;;;;;;;;5025131;28;1213;-70
2022/05/15 13:12:54;;;;;;;;;;;;;;;;;;5010594;28;1397;-70
2022/05/15 13:15:22;;;;;;;;;;;;;;;;;;5014337;28;1134;-70
2022/05/15 13:17:49;;;;;;;;;;;;;;;;;;5012873;28;1975;-70
2022/05/15 13:20:16;;;;;;;;;;;;;;;;;;5018333;28;1573;-70
2022/05/15 13:22:43;;;;;;;;;;;;;;;;;;5021719;28;1586;-70
2022/05/15 13:25:10;;;;;;;;;;;;;;;;;;5017660;28;1226;-70
2022/05/15 13:27:39;;;;;;;;;;;;;;;;;;5020203;28;1420;-71
2022/05/15 13:30:06;;;;;;;;;;;;;;;;;;5022095;28;1215;-70
2022/05/15 13:32:32;;;;;;;;;;;;;;;;;;5014183;28;1294;-70
2022/05/15 13:34:59;;;;;;;;;;;;;;;;;;5012850;28;1199;-70
2022/05/15 13:37:28;;;;;;;;;;;;;;;;;;5025272;28;1989;-71
2022/05/15 13:45:24;;;;;;;;;;;;;;;;;;5021260;28;1152;-71
2022/05/15 13:48:00;;;;;;;;;;;;;;;;;;5018264;28;1368;-72
2022/05/15 13:50:40;;;;;;;;;;;;;;;;;;5024375;28;1295;-71
2022/05/15 13:53:25;;;;;;;;;;;;;;;;;;5021966;28;1382;-71
2022/05/15 13:55:52;;;;;;;;;;;;;;;;;;5013763;28;1029;-70
2022/05/15 13:58:19;;;;;;;;;;;;;;;;;;5024694;28;1910;-71
2022/05/15 14:01:00;;;;;;;;;;;;;;;;;;5025052;28;1154;-71
2022/05/15 14:03:28;;;;;;;;;;;;;;;;;;5013490;28;1403;-69
2022/05/15 14:06:00;;;;;;;;;;;;;;;;;;5013510;28;846;-70
2022/05/15 14:08:26;;;;;;;;;;;;;;;;;;5012956;28;1429;-71
2022/05/15 14:10:59;;;;;;;;;;;;;;;;;;5013469;28;1068;-70
2022/05/15 14:13:29;;;;;;;;;;;;;;;;;;5012026;28;1471;-71
2022/05/15 14:15:55;;;;;;;;;;;;;;;;;;5013171;28;1123;-70
2022/05/15 14:18:28;;;;;;;;;;;;;;;;;;5026362;28;1975;-70
2022/05/15 14:21:10;;;;;;;;;;;;;;;;;;5024589;28;1160;-70
2022/05/15 14:23:36;;;;;;;;;;;;;;;;;;5032553;28;1310;-71
2022/05/15 14:26:03;;;;;;;;;;;;;;;;;;5031637;28;786;-71
2022/05/15 14:28:29;;;;;;;;;;;;;;;;;;5031428;28;1433;-70
2022/05/15 14:30:55;;;;;;;;;;;;;;;;;;5032967;28;1020;-72
2022/05/15 14:33:22;;;;;;;;;;;;;;;;;;5031386;28;1415;-71
2022/05/15 14:35:50;;;;;;;;;;;;;;;;;;5033355;28;1134;-72
2022/05/15 14:38:18;;;;;;;;;;;;;;;;;;5033049;28;1977;-72
2022/05/15 14:40:44;;;;;;;;;;;;;;;;;;5031843;28;1182;-71
2022/05/15 14:43:11;;;;;;;;;;;;;;;;;;5033447;28;1383;-71
2022/05/15 14:45:38;;;;;;;;;;;;;;;;;;5033091;28;1068;-71
2022/05/15 14:48:05;;;;;;;;;;;;;;;;;;5032421;28;1154;-71
2022/05/15 14:50:31;;;;;;;;;;;;;;;;;;5029410;28;1578;-70
2022/05/15 14:52:57;;;;;;;;;;;;;;;;;;5032276;28;1310;-72
2022/05/15 14:58:11;;;;;;;;;;;;;;;;;;5031754;28;1914;-71
2022/05/15 15:00:37;;;;;;;;;;;;;;;;;;5031186;28;910;-72
2022/05/15 15:03:03;;;;;;;;;;;;;;;;;;5032033;28;1295;-71
2022/05/15 15:05:44;;;;;;;;;;;;;;;;;;5032242;28;1130;-72
2022/05/15 15:08:10;;;;;;;;;;;;;;;;;;5032073;28;1124;-71
2022/05/15 15:10:38;;;;;;;;;;;;;;;;;;5032008;28;1072;-72
2022/05/15 15:13:04;;;;;;;;;;;;;;;;;;5030344;28;1537;-71
2022/05/15 15:15:30;;;;;;;;;;;;;;;;;;5031997;28;1048;-72
2022/05/15 15:17:57;;;;;;;;;;;;;;;;;;5031562;28;1976;-71
2022/05/15 15:20:23;;;;;;;;;;;;;;;;;;5031812;28;720;-71
2022/05/15 15:22:49;;;;;;;;;;;;;;;;;;5031755;28;1416;-71
2022/05/15 15:25:15;;;;;;;;;;;;;;;;;;5026139;28;1412;-70
2022/05/15 15:27:43;;;;;;;;;;;;;;;;;;5017632;28;1487;-72
2022/05/15 15:30:09;;;;;;;;;;;;;;;;;;5013696;28;1308;-70
2022/05/15 15:32:36;;;;;;;;;;;;;;;;;;5020535;28;1491;-71
2022/05/15 15:35:02;;;;;;;;;;;;;;;;;;5029113;28;1495;-73
2022/05/15 15:40:18;;;;;;;;;;;;;;;;;;5015408;28;1072;-72
2022/05/15 15:42:45;;;;;;;;;;;;;;;;;;5016391;28;1506;-71
2022/05/15 15:45:12;;;;;;;;;;;;;;;;;;5022095;28;1356;-71
2022/05/15 15:47:38;;;;;;;;;;;;;;;;;;5016179;28;1166;-71
2022/05/15 15:50:05;;;;;;;;;;;;;;;;;;5023092;28;1527;-70
2022/05/15 15:52:32;;;;;;;;;;;;;;;;;;5011299;28;1330;-71
2022/05/15 15:54:58;;;;;;;;;;;;;;;;;;5011750;28;811;-71
2022/05/15 15:57:24;;;;;;;;;;;;;;;;;;5011170;28;1914;-71
2022/05/15 15:59:52;;;;;;;;;;;;;;;;;;5015963;28;1388;-71
2022/05/15 16:02:18;;;;;;;;;;;;;;;;;;5030988;28;1408;-70
2022/05/15 16:04:44;;;;;;;;;;;;;;;;;;5022519;28;1400;-71
2022/05/15 16:07:10;;;;;;;;;;;;;;;;;;5022041;28;1222;-70
2022/05/15 16:09:38;;;;;;;;;;;;;;;;;;5031183;28;873;-71
2022/05/15 16:12:04;;;;;;;;;;;;;;;;;;5030611;28;1317;-70
2022/05/15 16:14:30;;;;;;;;;;;;;;;;;;5021246;28;1938;-71
2022/05/15 16:16:58;;;;;;;;;;;;;;;;;;5027460;28;1039;-70
2022/05/15 16:19:24;;;;;;;;;;;;;;;;;;5011186;28;1922;-72
2022/05/15 16:21:51;;;;;;;;;;;;;;;;;;5010991;28;1044;-70
2022/05/15 16:24:18;;;;;;;;;;;;;;;;;;5011853;28;1428;-71
2022/05/15 16:26:45;;;;;;;;;;;;;;;;;;5018906;28;1218;-72
2022/05/15 16:29:11;;;;;;;;;;;;;;;;;;5016682;28;1495;-71
2022/05/15 16:31:37;;;;;;;;;;;;;;;;;;5016927;28;1360;-69
2022/05/15 16:34:05;;;;;;;;;;;;;;;;;;5020087;28;1517;-70
2022/05/15 16:36:31;;;;;;;;;;;;;;;;;;5013665;28;1257;-70
2022/05/15 16:38:57;;;;;;;;;;;;;;;;;;5016512;28;1986;-70
2022/05/15 16:41:23;;;;;;;;;;;;;;;;;;5015238;28;1126;-70
2022/05/15 16:43:51;;;;;;;;;;;;;;;;;;5008445;28;1538;-71
2022/05/15 16:46:17;;;;;;;;;;;;;;;;;;5015362;28;1185;-70
2022/05/15 16:48:44;;;;;;;;;;;;;;;;;;5010741;28;1404;-70
2022/05/15 16:51:12;;;;;;;;;;;;;;;;;;5020393;28;1476;-70
2022/05/15 16:53:38;;;;;;;;;;;;;;;;;;5013073;28;1420;-70
2022/05/15 16:56:04;;;;;;;;;;;;;;;;;;5008179;28;1084;-70
2022/05/15 16:58:31;;;;;;;;;;;;;;;;;;5008126;28;1939;-70
2022/05/15 17:00:57;;;;;;;;;;;;;;;;;;5013669;28;1400;-70
2022/05/15 17:03:23;;;;;;;;;;;;;;;;;;5013630;28;1400;-69
2022/05/15 17:05:49;;;;;;;;;;;;;;;;;;5008049;28;1145;-70
2022/05/15 17:08:17;;;;;;;;;;;;;;;;;;5007981;28;810;-70
2022/05/15 17:10:45;;;;;;;;;;;;;;;;;;5014051;28;1499;-70
2022/05/15 17:13:12;;;;;;;;;;;;;;;;;;5018107;28;1522;-69
2022/05/15 17:15:38;;;;;;;;;;;;;;;;;;5018766;28;1396;-70
2022/05/15 17:18:05;;;;;;;;;;;;;;;;;;5020515;28;1981;-70
2022/05/15 17:20:31;;;;;;;;;;;;;;;;;;5017978;28;1383;-70
2022/05/15 17:22:57;;;;;;;;;;;;;;;;;;5016978;28;1495;-70
2022/05/15 17:25:31;;;;;;;;;;;;;;;;;;5019947;28;1454;-71
2022/05/15 17:27:57;;;;;;;;;;;;;;;;;;5009601;28;1170;-70
2022/05/15 17:35:51;;;;;;;;;;;;;;;;;;5013027;28;1178;-69
2022/05/15 17:38:17;;;;;;;;;;;;;;;;;;5028580;28;1921;-72
2022/05/15 17:40:45;;;;;;;;;;;;;;;;;;5028907;28;992;-70
2022/05/15 17:43:11;;;;;;;;;;;;;;;;;;5025888;28;1408;-70
2022/05/15 17:45:38;;;;;;;;;;;;;;;;;;5017800;28;1198;-70
2022/05/15 17:48:05;;;;;;;;;;;;;;;;;;5010354;28;894;-71
2022/05/15 17:50:32;;;;;;;;;;;;;;;;;;5010281;28;1072;-69
2022/05/15 17:52:58;;;;;;;;;;;;;;;;;;5013687;28;1467;-71